VOZ091 YMML-WADD
Flight info
| Callsign | VOZ091 |
|---|---|
| Flight time | N/A |
| Altitude | 36000 |
| Route | PEDNI H345 AD T20 RUSAD/N0459F380 T20 BOPLO B349 KALIV |
| Aircraft | B38M/M-SADE3GHIJ4J7M3RWZ/LB1D1 |
Departure
| Time | 2026-05-05 07:13 |
|---|---|
| Airport | Melbourne Airport (YMML) |
Arrival
| Time | N/A |
|---|---|
| Airport | Denpasar I Gusti Ngurah Rai International Airport (WADD) |
| Time | Latitude | Longitude | Altitude | Speed | Heading |
|---|---|---|---|---|---|
| 2026-05-05 06:37 | -37.66898 | 144.84352 | 392 ft | 0 kts | 82° |
| 2026-05-05 06:59 | -37.66900 | 144.84338 | 392 ft | 4 kts | 82° |
| 2026-05-05 06:59 | -37.66903 | 144.84304 | 392 ft | 4 kts | 81° |
| 2026-05-05 07:00 | -37.66908 | 144.84270 | 391 ft | 4 kts | 78° |
| 2026-05-05 07:00 | -37.66916 | 144.84238 | 391 ft | 4 kts | 63° |
| 2026-05-05 07:00 | -37.66930 | 144.84219 | 390 ft | 4 kts | 1° |
| 2026-05-05 07:00 | -37.66952 | 144.84223 | 390 ft | 4 kts | 351° |
| 2026-05-05 07:01 | -37.66979 | 144.84228 | 389 ft | 4 kts | 351° |
| 2026-05-05 07:01 | -37.67005 | 144.84233 | 388 ft | 3 kts | 352° |
| 2026-05-05 07:01 | -37.67026 | 144.84238 | 388 ft | 4 kts | 340° |
| 2026-05-05 07:01 | -37.67048 | 144.84255 | 388 ft | 4 kts | 309° |
| 2026-05-05 07:02 | -37.67059 | 144.84284 | 388 ft | 4 kts | 276° |
| 2026-05-05 07:02 | -37.67058 | 144.84317 | 388 ft | 4 kts | 262° |
| 2026-05-05 07:02 | -37.67057 | 144.84329 | 388 ft | 0 kts | 262° |
| 2026-05-05 07:06 | -37.67057 | 144.84322 | 388 ft | 3 kts | 263° |
| 2026-05-05 07:06 | -37.67057 | 144.84286 | 388 ft | 5 kts | 283° |
| 2026-05-05 07:07 | -37.67053 | 144.84273 | 388 ft | 1 kts | 295° |
| 2026-05-05 07:07 | -37.67042 | 144.84259 | 388 ft | 4 kts | 321° |
| 2026-05-05 07:07 | -37.66980 | 144.84228 | 389 ft | 15 kts | 352° |
| 2026-05-05 07:07 | -37.66853 | 144.84205 | 392 ft | 20 kts | 352° |
| 2026-05-05 07:08 | -37.66713 | 144.84179 | 398 ft | 20 kts | 351° |
| 2026-05-05 07:08 | -37.66585 | 144.84154 | 403 ft | 17 kts | 352° |
| 2026-05-05 07:08 | -37.66475 | 144.84134 | 406 ft | 15 kts | 352° |
| 2026-05-05 07:08 | -37.66381 | 144.84117 | 411 ft | 13 kts | 352° |
| 2026-05-05 07:09 | -37.66296 | 144.84101 | 411 ft | 12 kts | 352° |
| 2026-05-05 07:09 | -37.66216 | 144.84086 | 413 ft | 12 kts | 352° |
| 2026-05-05 07:09 | -37.66133 | 144.84071 | 408 ft | 13 kts | 351° |
| 2026-05-05 07:09 | -37.66046 | 144.84054 | 412 ft | 14 kts | 351° |
| 2026-05-05 07:10 | -37.65941 | 144.84033 | 415 ft | 17 kts | 352° |
| 2026-05-05 07:10 | -37.65805 | 144.84009 | 415 ft | 21 kts | 351° |
| 2026-05-05 07:10 | -37.65659 | 144.83980 | 419 ft | 21 kts | 351° |
| 2026-05-05 07:10 | -37.65514 | 144.83952 | 420 ft | 20 kts | 351° |
| 2026-05-05 07:11 | -37.65382 | 144.83915 | 421 ft | 19 kts | 346° |
| 2026-05-05 07:11 | -37.65301 | 144.83810 | 428 ft | 16 kts | 283° |
| 2026-05-05 07:11 | -37.65308 | 144.83678 | 438 ft | 14 kts | 261° |
| 2026-05-05 07:11 | -37.65322 | 144.83558 | 441 ft | 13 kts | 262° |
| 2026-05-05 07:12 | -37.65385 | 144.83503 | 435 ft | 14 kts | 173° |
| 2026-05-05 07:12 | -37.65624 | 144.83547 | 425 ft | 70 kts | 171° |
| 2026-05-05 07:12 | -37.66347 | 144.83684 | 412 ft | 137 kts | 172° |
| 2026-05-05 07:12 | -37.67461 | 144.83891 | 518 ft | 174 kts | 171° |
| 2026-05-05 07:13 | -37.68679 | 144.84119 | 1241 ft | 177 kts | 174° |
| 2026-05-05 07:13 | -37.69909 | 144.84348 | 2032 ft | 180 kts | 174° |
| 2026-05-05 07:13 | -37.70756 | 144.84506 | 2410 ft | 191 kts | 174° |
| 2026-05-05 07:13 | -37.72655 | 144.84854 | 3002 ft | 223 kts | 177° |
| 2026-05-05 07:14 | -37.74256 | 144.84633 | 3501 ft | 237 kts | 207° |
| 2026-05-05 07:14 | -37.75507 | 144.83321 | 4371 ft | 242 kts | 238° |
| 2026-05-05 07:14 | -37.76019 | 144.81289 | 5001 ft | 257 kts | 270° |
| 2026-05-05 07:14 | -37.75598 | 144.79099 | 5967 ft | 258 kts | 289° |
| 2026-05-05 07:15 | -37.75116 | 144.76872 | 6731 ft | 267 kts | 280° |
| 2026-05-05 07:15 | -37.74721 | 144.74565 | 7597 ft | 269 kts | 281° |
| 2026-05-05 07:15 | -37.74304 | 144.72277 | 8446 ft | 272 kts | 281° |
| 2026-05-05 07:15 | -37.73864 | 144.69924 | 9322 ft | 275 kts | 281° |
| 2026-05-05 07:16 | -37.73413 | 144.67567 | 10183 ft | 278 kts | 281° |
| 2026-05-05 07:16 | -37.73104 | 144.65969 | 10516 ft | 288 kts | 281° |
| 2026-05-05 07:16 | -37.72434 | 144.62538 | 11029 ft | 311 kts | 281° |
| 2026-05-05 07:16 | -37.71815 | 144.59866 | 11597 ft | 322 kts | 291° |
| 2026-05-05 07:17 | -37.70847 | 144.57343 | 12392 ft | 324 kts | 293° |